KWST Airport (Westerly State) Information

FAA: WST - ICAO: KWST

KWST Airport Location

State Rhode Island
County Washington
City Westerly
KWST Airport is 2 miles southeast of Westerly, RI.
Latitude 41-20-58.6787N
Longitude 071-48-12.3006W
Elevation 81ft

KWST Airport METARs

METAR KWST 251753Z AUTO 20011KT 10SM CLR 21/18 A2994 RMK AO2 SLP136 60000 T02110178 10217 20156 56019
Altimeter 29.94"
Temperature 21.1°C (70.0°F)
Wind 200° at 11KT
Clouds Skies are clear.
Visibility 10.0mi
Time observed: 2021-10-25T17:53:00Z

KWST Airport Details

Status Operational
Activation December 1939
Ownership Public
Usage Public
Chart NEW YORK
ATC on-site No
Beacon schedule sunset-sunrise
Beacon color clear green

KWST Airport Contacts

Owner RHODE ISLAND AIRPORT CORPORATION
Owner address 2000 POST RD, WARWICK, RI 02886
Owner phone (401) 691-2265
Manager GARY G. MATHNA
Manager address 495 PONDTOWN ROAD, DILLSBURG, PA 17019
Manager phone (717) 432-7389

KWST Airport (Westerly State) Radio Frequencies

KWST (Airport) Radio Frequencies

UNICOM 123
Common traffic advisory frequency (CTAF) 123